Charleston Air Force Base-International Airport
KCHS : now visible

Airfield :











YOU CAN JOIN US ON...

 
LOGIN :

Register | Disclaimer

   EN    FR    IT 

 









Legend :    VFR   Marginal VFR   IFR   Intensive IFR   Very Intensive IFR
Visi :
Ceiling :
>= 8 km
>= 3000ft
5 to 8 km
1000 to 3000 ft
1500m to 5 km
500 to 1000 ft
800 to 1500m
200 to 500 ft
< 800m
< 200 ft
Symbols :   Thunderstorms  Fog  Heavy snow  Heavy precipitations  Wind > 20 kt






- Airport Elevation : 46 ft
- IATA code : CHS


KCHS - Charleston Air Force Base-International

CURRENT METAR :
  • 220256Z 36009KT 8SM -FZRA OVC008 M01/M01 A3029 RMK AO2 SLP258 P0001 60005 T10061011 55001

EXPIRED METARs :
  • 220156Z 36008KT 9SM -FZRA OVC008 00/M01 A3028 RMK AO2 SLP254 P0001 T00001011
  • 220056Z 02006KT 7SM -FZRA BKN008 OVC012 00/M01 A3029 RMK AO2 RAE13FZRAB13 SLP256 P0003 T00001011
  • 220013Z 34007KT 7SM -FZRA BKN008 OVC012 00/M01 A3030 RMK AO2 RAE13FZRAB13 P0000 T00001011

TAF KCHS
Valid from the 22 at 00:00 until the 23 at 00:00 UTC


212328Z 2200/2224 36008KT 5SM -FZRA BR OVC007
TEMPO 2200/2202 SCT007 OVC012
FM220800 36010KT 6SM -FZDZ BR OVC006
FM221400 36010KT P6SM OVC006
FM221800 35007KT P6SM SCT008 OVC015
KZJX FIR / North America



MET'MAP, your aeronautical weather chart ! - Copyright ORBIFLY December 2007 - Disclaimer

ORBIFLY MET'MAP TEAM :

Programming & Development : Alexandra Zaïnal
Concept & original design : Baudouin d'Aumeries
Assistance for programming : Marc-Olivier Méhu
Technical & hardware support : Manuel Goepfert

Contact : metmap@orbifly.com




SOURCES & CREDITS :

   NOAA       Earth
Advisory